sensor_id;sensor_type;location;lat;lon;timestamp;temperature;humidity
24664;DHT22;12791;50.992;13.788;2022-11-30T04:02:03;4.50;99.90
24664;DHT22;12791;50.992;13.788;2022-11-30T04:04:29;4.30;99.90
24664;DHT22;12791;50.992;13.788;2022-11-30T04:06:56;4.20;99.90
24664;DHT22;12791;50.992;13.788;2022-11-30T04:09:23;4.00;99.90
24664;DHT22;12791;50.992;13.788;2022-11-30T04:11:50;4.20;99.90
24664;DHT22;12791;50.992;13.788;2022-11-30T04:14:16;4.20;99.90
24664;DHT22;12791;50.992;13.788;2022-11-30T04:16:43;4.10;99.90
24664;DHT22;12791;50.992;13.788;2022-11-30T04:19:11;4.20;99.90
24664;DHT22;12791;50.992;13.788;2022-11-30T04:21:38;4.20;99.90
24664;DHT22;12791;50.992;13.788;2022-11-30T04:24:06;4.20;99.90
24664;DHT22;12791;50.992;13.788;2022-11-30T04:26:33;4.00;99.90
24664;DHT22;12791;50.992;13.788;2022-11-30T04:28:59;4.20;99.90
24664;DHT22;12791;50.992;13.788;2022-11-30T04:31:26;4.20;99.90
24664;DHT22;12791;50.992;13.788;2022-11-30T04:33:53;4.10;99.90
24664;DHT22;12791;50.992;13.788;2022-11-30T04:36:21;3.80;99.90
24664;DHT22;12791;50.992;13.788;2022-11-30T04:38:48;4.00;99.90
24664;DHT22;12791;50.992;13.788;2022-11-30T04:41:15;4.10;99.90
24664;DHT22;12791;50.992;13.788;2022-11-30T04:43:42;4.10;99.90
24664;DHT22;12791;50.992;13.788;2022-11-30T04:46:08;3.90;99.90
24664;DHT22;12791;50.992;13.788;2022-11-30T04:48:35;3.80;99.90
24664;DHT22;12791;50.992;13.788;2022-11-30T04:51:03;3.80;99.90
24664;DHT22;12791;50.992;13.788;2022-11-30T04:53:32;3.90;99.90
24664;DHT22;12791;50.992;13.788;2022-11-30T04:56:03;3.70;99.90
24664;DHT22;12791;50.992;13.788;2022-11-30T04:58:30;3.60;99.90
24664;DHT22;12791;50.992;13.788;2022-11-30T05:00:57;3.60;99.90
24664;DHT22;12791;50.992;13.788;2022-11-30T05:03:24;3.30;99.90
24664;DHT22;12791;50.992;13.788;2022-11-30T05:05:50;3.60;99.90
24664;DHT22;12791;50.992;13.788;2022-11-30T05:08:17;3.80;99.90
24664;DHT22;12791;50.992;13.788;2022-11-30T05:10:50;3.70;99.90
24664;DHT22;12791;50.992;13.788;2022-11-30T05:13:17;3.90;99.90
24664;DHT22;12791;50.992;13.788;2022-11-30T05:15:44;3.70;99.90
24664;DHT22;12791;50.992;13.788;2022-11-30T05:18:11;3.50;99.90
24664;DHT22;12791;50.992;13.788;2022-11-30T05:20:37;3.50;99.90
24664;DHT22;12791;50.992;13.788;2022-11-30T05:23:04;3.60;99.90
24664;DHT22;12791;50.992;13.788;2022-11-30T05:25:31;3.50;99.90
24664;DHT22;12791;50.992;13.788;2022-11-30T05:27:59;3.50;99.90
24664;DHT22;12791;50.992;13.788;2022-11-30T05:30:26;3.70;99.90
24664;DHT22;12791;50.992;13.788;2022-11-30T05:32:52;3.60;99.90
24664;DHT22;12791;50.992;13.788;2022-11-30T05:35:19;3.60;99.90
24664;DHT22;12791;50.992;13.788;2022-11-30T05:37:46;3.60;99.90
24664;DHT22;12791;50.992;13.788;2022-11-30T05:40:13;3.60;99.90
24664;DHT22;12791;50.992;13.788;2022-11-30T05:42:39;3.70;99.90
24664;DHT22;12791;50.992;13.788;2022-11-30T05:45:09;3.70;99.90
24664;DHT22;12791;50.992;13.788;2022-11-30T05:47:36;3.60;99.90
24664;DHT22;12791;50.992;13.788;2022-11-30T05:50:03;3.80;99.90
24664;DHT22;12791;50.992;13.788;2022-11-30T05:52:30;3.70;99.90
24664;DHT22;12791;50.992;13.788;2022-11-30T05:54:57;3.70;99.90
24664;DHT22;12791;50.992;13.788;2022-11-30T05:57:24;3.70;99.90
24664;DHT22;12791;50.992;13.788;2022-11-30T05:59:51;3.60;99.90
24664;DHT22;12791;50.992;13.788;2022-11-30T06:02:19;3.80;99.90
24664;DHT22;12791;50.992;13.788;2022-11-30T06:04:46;3.80;99.90
24664;DHT22;12791;50.992;13.788;2022-11-30T06:07:13;3.60;99.90
24664;DHT22;12791;50.992;13.788;2022-11-30T06:09:40;3.70;99.90
24664;DHT22;12791;50.992;13.788;2022-11-30T06:12:07;3.60;99.90
24664;DHT22;12791;50.992;13.788;2022-11-30T06:14:33;3.70;99.90
24664;DHT22;12791;50.992;13.788;2022-11-30T06:17:00;3.70;99.90
24664;DHT22;12791;50.992;13.788;2022-11-30T06:19:28;3.60;99.90
24664;DHT22;12791;50.992;13.788;2022-11-30T06:21:55;3.70;99.90
24664;DHT22;12791;50.992;13.788;2022-11-30T06:24:22;3.60;99.90
24664;DHT22;12791;50.992;13.788;2022-11-30T06:26:48;3.50;99.90
24664;DHT22;12791;50.992;13.788;2022-11-30T06:29:15;3.70;99.90
24664;DHT22;12791;50.992;13.788;2022-11-30T06:31:42;3.50;99.90
24664;DHT22;12791;50.992;13.788;2022-11-30T06:34:09;3.70;99.90
24664;DHT22;12791;50.992;13.788;2022-11-30T06:36:37;3.50;99.90
24664;DHT22;12791;50.992;13.788;2022-11-30T06:39:04;3.30;99.90
24664;DHT22;12791;50.992;13.788;2022-11-30T06:41:30;3.50;99.90
24664;DHT22;12791;50.992;13.788;2022-11-30T06:43:57;3.60;99.90
24664;DHT22;12791;50.992;13.788;2022-11-30T06:46:24;3.50;99.90
24664;DHT22;12791;50.992;13.788;2022-11-30T06:48:51;3.40;99.90
24664;DHT22;12791;50.992;13.788;2022-11-30T06:51:18;3.50;99.90
24664;DHT22;12791;50.992;13.788;2022-11-30T06:53:46;3.40;99.90
24664;DHT22;12791;50.992;13.788;2022-11-30T06:56:13;3.60;99.90
24664;DHT22;12791;50.992;13.788;2022-11-30T06:58:40;3.70;99.90
24664;DHT22;12791;50.992;13.788;2022-11-30T07:01:08;3.60;99.90
24664;DHT22;12791;50.992;13.788;2022-11-30T07:03:35;3.40;99.90
24664;DHT22;12791;50.992;13.788;2022-11-30T07:06:06;3.30;99.90
24664;DHT22;12791;50.992;13.788;2022-11-30T07:08:33;3.60;99.90
24664;DHT22;12791;50.992;13.788;2022-11-30T07:11:01;3.10;99.90
24664;DHT22;12791;50.992;13.788;2022-11-30T07:13:28;3.20;99.90
24664;DHT22;12791;50.992;13.788;2022-11-30T07:15:55;3.20;99.90
24664;DHT22;12791;50.992;13.788;2022-11-30T07:18:22;3.20;99.90
24664;DHT22;12791;50.992;13.788;2022-11-30T07:20:49;2.90;99.90
24664;DHT22;12791;50.992;13.788;2022-11-30T07:23:16;3.30;99.90
24664;DHT22;12791;50.992;13.788;2022-11-30T07:26:02;3.20;99.90
24664;DHT22;12791;50.992;13.788;2022-11-30T07:28:32;3.40;99.90
24664;DHT22;12791;50.992;13.788;2022-11-30T07:30:59;3.50;99.90
24664;DHT22;12791;50.992;13.788;2022-11-30T07:33:26;3.20;99.90
24664;DHT22;12791;50.992;13.788;2022-11-30T07:35:52;3.50;99.90
24664;DHT22;12791;50.992;13.788;2022-11-30T07:38:19;3.40;99.90
24664;DHT22;12791;50.992;13.788;2022-11-30T07:40:46;3.60;99.90
24664;DHT22;12791;50.992;13.788;2022-11-30T07:43:14;3.80;99.90
24664;DHT22;12791;50.992;13.788;2022-11-30T07:45:42;3.70;99.90
24664;DHT22;12791;50.992;13.788;2022-11-30T07:48:08;3.50;99.90
24664;DHT22;12791;50.992;13.788;2022-11-30T07:50:35;3.70;99.90
24664;DHT22;12791;50.992;13.788;2022-11-30T07:53:02;3.70;99.90
24664;DHT22;12791;50.992;13.788;2022-11-30T07:55:30;3.80;99.90
24664;DHT22;12791;50.992;13.788;2022-11-30T07:57:56;3.70;99.90
24664;DHT22;12791;50.992;13.788;2022-11-30T08:00:25;3.70;99.90
24664;DHT22;12791;50.992;13.788;2022-11-30T08:02:51;3.80;99.90
24664;DHT22;12791;50.992;13.788;2022-11-30T08:05:18;3.70;99.90
24664;DHT22;12791;50.992;13.788;2022-11-30T08:07:49;3.80;99.90
24664;DHT22;12791;50.992;13.788;2022-11-30T08:10:16;3.80;99.90
24664;DHT22;12791;50.992;13.788;2022-11-30T08:12:43;4.00;99.90
24664;DHT22;12791;50.992;13.788;2022-11-30T08:15:10;4.10;99.90
24664;DHT22;12791;50.992;13.788;2022-11-30T08:17:38;3.90;99.90
24664;DHT22;12791;50.992;13.788;2022-11-30T08:20:06;3.90;99.90
24664;DHT22;12791;50.992;13.788;2022-11-30T08:22:33;3.80;99.90
24664;DHT22;12791;50.992;13.788;2022-11-30T08:25:00;4.10;99.90
24664;DHT22;12791;50.992;13.788;2022-11-30T08:27:27;4.10;99.90
24664;DHT22;12791;50.992;13.788;2022-11-30T08:29:54;4.10;99.90
24664;DHT22;12791;50.992;13.788;2022-11-30T08:32:21;4.20;99.90
24664;DHT22;12791;50.992;13.788;2022-11-30T08:34:49;4.10;99.90
24664;DHT22;12791;50.992;13.788;2022-11-30T08:37:16;4.00;99.90
24664;DHT22;12791;50.992;13.788;2022-11-30T08:39:42;3.90;99.90
24664;DHT22;12791;50.992;13.788;2022-11-30T08:42:09;4.00;99.90
24664;DHT22;12791;50.992;13.788;2022-11-30T08:44:36;4.30;99.90
24664;DHT22;12791;50.992;13.788;2022-11-30T08:47:03;4.20;99.90
24664;DHT22;12791;50.992;13.788;2022-11-30T08:49:30;4.10;99.90
24664;DHT22;12791;50.992;13.788;2022-11-30T08:51:58;4.10;99.90
24664;DHT22;12791;50.992;13.788;2022-11-30T08:54:25;4.10;99.90
24664;DHT22;12791;50.992;13.788;2022-11-30T08:56:52;4.10;99.90
24664;DHT22;12791;50.992;13.788;2022-11-30T08:59:19;4.20;99.90
24664;DHT22;12791;50.992;13.788;2022-11-30T09:01:46;4.40;99.90
24664;DHT22;12791;50.992;13.788;2022-11-30T09:04:13;4.20;99.90
24664;DHT22;12791;50.992;13.788;2022-11-30T09:06:40;4.30;99.90
24664;DHT22;12791;50.992;13.788;2022-11-30T09:09:08;4.50;99.90
24664;DHT22;12791;50.992;13.788;2022-11-30T09:11:35;4.60;99.90
24664;DHT22;12791;50.992;13.788;2022-11-30T09:14:02;4.40;99.90
24664;DHT22;12791;50.992;13.788;2022-11-30T09:16:30;4.60;99.90
24664;DHT22;12791;50.992;13.788;2022-11-30T09:18:57;4.50;99.90
24664;DHT22;12791;50.992;13.788;2022-11-30T09:21:24;4.50;99.90
24664;DHT22;12791;50.992;13.788;2022-11-30T09:23:53;4.60;99.90
24664;DHT22;12791;50.992;13.788;2022-11-30T09:26:22;4.90;99.90
24664;DHT22;12791;50.992;13.788;2022-11-30T09:28:50;4.80;99.90
24664;DHT22;12791;50.992;13.788;2022-11-30T09:31:18;4.20;99.90
24664;DHT22;12791;50.992;13.788;2022-11-30T09:33:45;4.70;99.90
24664;DHT22;12791;50.992;13.788;2022-11-30T09:36:14;4.80;99.90
24664;DHT22;12791;50.992;13.788;2022-11-30T09:38:41;4.80;99.90
24664;DHT22;12791;50.992;13.788;2022-11-30T09:41:25;4.50;99.90
24664;DHT22;12791;50.992;13.788;2022-11-30T09:43:59;5.10;99.90
24664;DHT22;12791;50.992;13.788;2022-11-30T09:46:35;4.90;99.90
24664;DHT22;12791;50.992;13.788;2022-11-30T09:49:04;4.80;99.90
24664;DHT22;12791;50.992;13.788;2022-11-30T09:51:43;4.90;99.90
24664;DHT22;12791;50.992;13.788;2022-11-30T09:54:13;4.90;99.90
24664;DHT22;12791;50.992;13.788;2022-11-30T09:56:43;4.90;99.90
24664;DHT22;12791;50.992;13.788;2022-11-30T09:59:15;4.80;99.90
24664;DHT22;12791;50.992;13.788;2022-11-30T10:01:45;4.90;99.90
24664;DHT22;12791;50.992;13.788;2022-11-30T10:04:20;4.90;99.90
24664;DHT22;12791;50.992;13.788;2022-11-30T10:06:53;4.90;99.90
24664;DHT22;12791;50.992;13.788;2022-11-30T10:09:33;5.00;99.90
24664;DHT22;12791;50.992;13.788;2022-11-30T10:12:06;5.10;99.90
24664;DHT22;12791;50.992;13.788;2022-11-30T10:15:07;5.00;99.90
24664;DHT22;12791;50.992;13.788;2022-11-30T10:17:41;5.00;99.90
24664;DHT22;12791;50.992;13.788;2022-11-30T10:23:12;4.90;99.90
24664;DHT22;12791;50.992;13.788;2022-11-30T10:25:47;4.80;99.90
24664;DHT22;12791;50.992;13.788;2022-11-30T10:28:22;4.70;99.90
24664;DHT22;12791;50.992;13.788;2022-11-30T10:30:53;5.00;99.90
24664;DHT22;12791;50.992;13.788;2022-11-30T10:33:24;5.20;99.90
24664;DHT22;12791;50.992;13.788;2022-11-30T10:35:55;5.10;99.90
24664;DHT22;12791;50.992;13.788;2022-11-30T10:38:27;5.20;99.90
24664;DHT22;12791;50.992;13.788;2022-11-30T10:41:00;5.50;99.90
24664;DHT22;12791;50.992;13.788;2022-11-30T10:43:31;5.30;99.90
24664;DHT22;12791;50.992;13.788;2022-11-30T10:45:59;5.50;99.90
24664;DHT22;12791;50.992;13.788;2022-11-30T10:48:33;5.50;99.90
24664;DHT22;12791;50.992;13.788;2022-11-30T10:51:02;5.50;99.90
24664;DHT22;12791;50.992;13.788;2022-11-30T10:53:30;5.50;99.90
24664;DHT22;12791;50.992;13.788;2022-11-30T10:56:00;5.50;99.90
24664;DHT22;12791;50.992;13.788;2022-11-30T10:58:32;5.60;99.90
24664;DHT22;12791;50.992;13.788;2022-11-30T11:01:04;5.10;99.90
24664;DHT22;12791;50.992;13.788;2022-11-30T11:03:32;5.40;99.90
24664;DHT22;12791;50.992;13.788;2022-11-30T11:06:06;5.70;99.90
24664;DHT22;12791;50.992;13.788;2022-11-30T11:08:33;5.80;99.90
24664;DHT22;12791;50.992;13.788;2022-11-30T11:11:00;5.60;99.90
24664;DHT22;12791;50.992;13.788;2022-11-30T11:13:39;5.50;99.90
24664;DHT22;12791;50.992;13.788;2022-11-30T11:16:08;5.70;99.90
24664;DHT22;12791;50.992;13.788;2022-11-30T11:18:36;5.70;99.90
24664;DHT22;12791;50.992;13.788;2022-11-30T11:21:05;5.90;99.90
24664;DHT22;12791;50.992;13.788;2022-11-30T11:23:35;5.70;99.90
24664;DHT22;12791;50.992;13.788;2022-11-30T11:26:03;5.90;99.90
24664;DHT22;12791;50.992;13.788;2022-11-30T11:28:31;5.70;99.90
24664;DHT22;12791;50.992;13.788;2022-11-30T11:30:59;5.80;99.90
24664;DHT22;12791;50.992;13.788;2022-11-30T11:33:27;5.80;99.90
24664;DHT22;12791;50.992;13.788;2022-11-30T11:35:55;5.80;99.90
24664;DHT22;12791;50.992;13.788;2022-11-30T11:38:41;5.60;99.90
24664;DHT22;12791;50.992;13.788;2022-11-30T11:41:17;5.70;99.90
24664;DHT22;12791;50.992;13.788;2022-11-30T11:43:57;5.60;99.90
24664;DHT22;12791;50.992;13.788;2022-11-30T11:46:26;5.60;99.90
24664;DHT22;12791;50.992;13.788;2022-11-30T11:48:57;5.80;99.90
24664;DHT22;12791;50.992;13.788;2022-11-30T11:51:29;5.70;99.90
24664;DHT22;12791;50.992;13.788;2022-11-30T11:53:57;5.70;99.90
24664;DHT22;12791;50.992;13.788;2022-11-30T11:56:29;5.80;99.90
24664;DHT22;12791;50.992;13.788;2022-11-30T11:58:59;5.70;99.90
24664;DHT22;12791;50.992;13.788;2022-11-30T12:01:39;5.80;99.90
24664;DHT22;12791;50.992;13.788;2022-11-30T12:04:19;6.00;99.90
24664;DHT22;12791;50.992;13.788;2022-11-30T12:06:51;6.00;99.90
24664;DHT22;12791;50.992;13.788;2022-11-30T12:09:23;5.80;99.90
24664;DHT22;12791;50.992;13.788;2022-11-30T12:11:50;6.10;99.90
24664;DHT22;12791;50.992;13.788;2022-11-30T12:14:18;6.10;99.90
24664;DHT22;12791;50.992;13.788;2022-11-30T12:16:59;5.80;99.90
24664;DHT22;12791;50.992;13.788;2022-11-30T12:19:35;6.00;99.90
24664;DHT22;12791;50.992;13.788;2022-11-30T12:22:14;6.10;99.90
24664;DHT22;12791;50.992;13.788;2022-11-30T12:25:04;5.80;99.90
24664;DHT22;12791;50.992;13.788;2022-11-30T12:27:42;6.10;99.90
24664;DHT22;12791;50.992;13.788;2022-11-30T12:30:14;5.60;99.90
24664;DHT22;12791;50.992;13.788;2022-11-30T12:35:35;6.10;99.90
24664;DHT22;12791;50.992;13.788;2022-11-30T12:38:11;6.00;99.90
24664;DHT22;12791;50.992;13.788;2022-11-30T12:40:47;6.00;99.90
24664;DHT22;12791;50.992;13.788;2022-11-30T12:43:25;6.10;99.90
24664;DHT22;12791;50.992;13.788;2022-11-30T12:46:01;6.10;99.90
24664;DHT22;12791;50.992;13.788;2022-11-30T12:48:34;6.30;99.90
24664;DHT22;12791;50.992;13.788;2022-11-30T12:51:10;6.20;99.90
24664;DHT22;12791;50.992;13.788;2022-11-30T12:53:42;6.10;99.90
24664;DHT22;12791;50.992;13.788;2022-11-30T12:56:19;6.10;99.90
24664;DHT22;12791;50.992;13.788;2022-11-30T12:58:51;6.00;99.90
24664;DHT22;12791;50.992;13.788;2022-11-30T13:01:36;6.20;99.90
24664;DHT22;12791;50.992;13.788;2022-11-30T13:04:12;6.20;99.90
24664;DHT22;12791;50.992;13.788;2022-11-30T13:06:45;6.20;99.90
24664;DHT22;12791;50.992;13.788;2022-11-30T13:09:16;6.10;99.90
24664;DHT22;12791;50.992;13.788;2022-11-30T13:11:50;5.90;99.90
24664;DHT22;12791;50.992;13.788;2022-11-30T13:14:22;6.20;99.90
24664;DHT22;12791;50.992;13.788;2022-11-30T13:16:53;6.20;99.90
24664;DHT22;12791;50.992;13.788;2022-11-30T13:19:48;6.00;99.90
24664;DHT22;12791;50.992;13.788;2022-11-30T13:22:30;5.70;99.90
24664;DHT22;12791;50.992;13.788;2022-11-30T13:25:08;6.30;99.90
24664;DHT22;12791;50.992;13.788;2022-11-30T13:27:42;6.20;99.90
24664;DHT22;12791;50.992;13.788;2022-11-30T13:30:19;5.90;99.90
24664;DHT22;12791;50.992;13.788;2022-11-30T13:32:50;5.90;99.90
24664;DHT22;12791;50.992;13.788;2022-11-30T13:35:41;6.10;99.90
24664;DHT22;12791;50.992;13.788;2022-11-30T13:38:17;6.00;99.90
24664;DHT22;12791;50.992;13.788;2022-11-30T13:40:55;6.00;99.90
24664;DHT22;12791;50.992;13.788;2022-11-30T13:43:25;6.10;99.90
24664;DHT22;12791;50.992;13.788;2022-11-30T13:46:05;5.90;99.90
24664;DHT22;12791;50.992;13.788;2022-11-30T13:48:37;6.00;99.90
24664;DHT22;12791;50.992;13.788;2022-11-30T13:51:05;6.00;99.90
24664;DHT22;12791;50.992;13.788;2022-11-30T13:53:34;6.10;99.90
24664;DHT22;12791;50.992;13.788;2022-11-30T13:56:05;6.10;99.90
24664;DHT22;12791;50.992;13.788;2022-11-30T13:58:33;6.10;99.90
24664;DHT22;12791;50.992;13.788;2022-11-30T14:01:25;5.90;99.90
24664;DHT22;12791;50.992;13.788;2022-11-30T14:04:29;6.00;99.90
24664;DHT22;12791;50.992;13.788;2022-11-30T14:06:56;5.90;99.90
24664;DHT22;12791;50.992;13.788;2022-11-30T14:09:54;5.90;99.90
24664;DHT22;12791;50.992;13.788;2022-11-30T14:18:21;6.00;99.90
24664;DHT22;12791;50.992;13.788;2022-11-30T14:20:51;5.80;99.90
24664;DHT22;12791;50.992;13.788;2022-11-30T14:23:21;5.90;99.90
24664;DHT22;12791;50.992;13.788;2022-11-30T14:25:54;5.80;99.90
24664;DHT22;12791;50.992;13.788;2022-11-30T14:28:24;6.10;99.90
24664;DHT22;12791;50.992;13.788;2022-11-30T14:30:54;6.10;99.90
24664;DHT22;12791;50.992;13.788;2022-11-30T14:33:24;6.00;99.90
24664;DHT22;12791;50.992;13.788;2022-11-30T14:35:54;6.10;99.90
24664;DHT22;12791;50.992;13.788;2022-11-30T14:38:25;5.90;99.90
24664;DHT22;12791;50.992;13.788;2022-11-30T14:40:54;6.00;99.90
24664;DHT22;12791;50.992;13.788;2022-11-30T14:43:20;6.00;99.90
24664;DHT22;12791;50.992;13.788;2022-11-30T14:45:58;6.10;99.90
24664;DHT22;12791;50.992;13.788;2022-11-30T14:48:25;5.90;99.90
24664;DHT22;12791;50.992;13.788;2022-11-30T14:50:54;5.90;99.90
24664;DHT22;12791;50.992;13.788;2022-11-30T14:53:31;5.80;99.90
24664;DHT22;12791;50.992;13.788;2022-11-30T14:56:07;5.70;99.90
24664;DHT22;12791;50.992;13.788;2022-11-30T14:58:43;5.90;99.90
24664;DHT22;12791;50.992;13.788;2022-11-30T15:01:17;5.70;99.90
24664;DHT22;12791;50.992;13.788;2022-11-30T15:03:45;6.00;99.90
24664;DHT22;12791;50.992;13.788;2022-11-30T15:06:13;6.10;99.90
24664;DHT22;12791;50.992;13.788;2022-11-30T15:08:43;5.80;99.90
24664;DHT22;12791;50.992;13.788;2022-11-30T15:11:14;5.90;99.90
24664;DHT22;12791;50.992;13.788;2022-11-30T15:13:43;5.70;99.90
24664;DHT22;12791;50.992;13.788;2022-11-30T15:16:17;5.80;99.90
24664;DHT22;12791;50.992;13.788;2022-11-30T15:18:44;6.10;99.90
24664;DHT22;12791;50.992;13.788;2022-11-30T15:21:13;6.10;99.90
24664;DHT22;12791;50.992;13.788;2022-11-30T15:23:42;5.80;99.90
24664;DHT22;12791;50.992;13.788;2022-11-30T15:26:14;6.10;99.90
24664;DHT22;12791;50.992;13.788;2022-11-30T15:28:47;5.90;99.90
24664;DHT22;12791;50.992;13.788;2022-11-30T15:31:17;5.80;99.90
24664;DHT22;12791;50.992;13.788;2022-11-30T15:33:45;5.90;99.90
24664;DHT22;12791;50.992;13.788;2022-11-30T15:36:13;5.60;99.90
24664;DHT22;12791;50.992;13.788;2022-11-30T15:38:40;5.90;99.90
24664;DHT22;12791;50.992;13.788;2022-11-30T15:41:18;5.90;99.90
24664;DHT22;12791;50.992;13.788;2022-11-30T15:43:49;5.60;99.90
24664;DHT22;12791;50.992;13.788;2022-11-30T15:46:30;5.90;99.90
24664;DHT22;12791;50.992;13.788;2022-11-30T15:49:15;6.10;99.90
24664;DHT22;12791;50.992;13.788;2022-11-30T15:51:44;6.10;99.90
24664;DHT22;12791;50.992;13.788;2022-11-30T15:54:12;5.90;99.90
24664;DHT22;12791;50.992;13.788;2022-11-30T15:56:54;5.90;99.90
24664;DHT22;12791;50.992;13.788;2022-11-30T15:59:22;5.70;99.90
24664;DHT22;12791;50.992;13.788;2022-11-30T16:01:51;6.20;99.90
24664;DHT22;12791;50.992;13.788;2022-11-30T16:04:26;6.10;99.90
24664;DHT22;12791;50.992;13.788;2022-11-30T16:06:54;5.70;99.90
24664;DHT22;12791;50.992;13.788;2022-11-30T16:09:23;5.90;99.90
24664;DHT22;12791;50.992;13.788;2022-11-30T16:11:54;6.10;99.90
24664;DHT22;12791;50.992;13.788;2022-11-30T16:14:22;5.80;99.90
24664;DHT22;12791;50.992;13.788;2022-11-30T16:16:49;6.00;99.90
24664;DHT22;12791;50.992;13.788;2022-11-30T16:19:17;5.80;99.90
24664;DHT22;12791;50.992;13.788;2022-11-30T16:21:44;6.00;99.90
24664;DHT22;12791;50.992;13.788;2022-11-30T16:24:12;6.00;99.90
24664;DHT22;12791;50.992;13.788;2022-11-30T16:26:40;6.10;99.90
24664;DHT22;12791;50.992;13.788;2022-11-30T16:29:08;5.90;99.90
24664;DHT22;12791;50.992;13.788;2022-11-30T16:31:35;5.90;99.90
24664;DHT22;12791;50.992;13.788;2022-11-30T16:34:03;5.90;99.90
24664;DHT22;12791;50.992;13.788;2022-11-30T16:36:35;6.00;99.90
24664;DHT22;12791;50.992;13.788;2022-11-30T16:39:02;6.00;99.90
24664;DHT22;12791;50.992;13.788;2022-11-30T16:41:30;6.10;99.90
24664;DHT22;12791;50.992;13.788;2022-11-30T16:43:57;5.90;99.90
24664;DHT22;12791;50.992;13.788;2022-11-30T16:46:27;6.10;99.90
24664;DHT22;12791;50.992;13.788;2022-11-30T16:48:54;6.00;99.90
24664;DHT22;12791;50.992;13.788;2022-11-30T16:51:24;6.10;99.90
24664;DHT22;12791;50.992;13.788;2022-11-30T16:53:51;5.70;99.90
24664;DHT22;12791;50.992;13.788;2022-11-30T16:56:18;6.00;99.90
24664;DHT22;12791;50.992;13.788;2022-11-30T16:58:45;6.20;99.90
24664;DHT22;12791;50.992;13.788;2022-11-30T17:01:15;6.10;99.90
24664;DHT22;12791;50.992;13.788;2022-11-30T17:03:47;6.00;99.90
24664;DHT22;12791;50.992;13.788;2022-11-30T17:06:17;5.90;99.90
24664;DHT22;12791;50.992;13.788;2022-11-30T17:08:44;6.00;99.90
24664;DHT22;12791;50.992;13.788;2022-11-30T17:11:16;6.10;99.90
24664;DHT22;12791;50.992;13.788;2022-11-30T17:13:43;5.80;99.90
24664;DHT22;12791;50.992;13.788;2022-11-30T17:16:10;6.10;99.90
24664;DHT22;12791;50.992;13.788;2022-11-30T17:18:37;6.00;99.90
24664;DHT22;12791;50.992;13.788;2022-11-30T17:21:07;5.80;99.90
24664;DHT22;12791;50.992;13.788;2022-11-30T17:23:36;5.80;99.90
24664;DHT22;12791;50.992;13.788;2022-11-30T17:26:02;6.00;99.90
24664;DHT22;12791;50.992;13.788;2022-11-30T17:28:29;5.60;99.90
24664;DHT22;12791;50.992;13.788;2022-11-30T17:30:56;5.70;99.90
24664;DHT22;12791;50.992;13.788;2022-11-30T17:33:23;5.80;99.90
24664;DHT22;12791;50.992;13.788;2022-11-30T17:35:49;5.70;99.90
24664;DHT22;12791;50.992;13.788;2022-11-30T17:38:18;5.60;99.90
24664;DHT22;12791;50.992;13.788;2022-11-30T17:40:44;5.80;99.90
24664;DHT22;12791;50.992;13.788;2022-11-30T17:43:11;5.90;99.90
24664;DHT22;12791;50.992;13.788;2022-11-30T17:45:38;5.70;99.90
24664;DHT22;12791;50.992;13.788;2022-11-30T17:48:05;5.80;99.90
24664;DHT22;12791;50.992;13.788;2022-11-30T17:50:32;5.90;99.90
24664;DHT22;12791;50.992;13.788;2022-11-30T17:52:59;5.90;99.90
24664;DHT22;12791;50.992;13.788;2022-11-30T17:55:27;5.90;99.90
24664;DHT22;12791;50.992;13.788;2022-11-30T17:57:53;5.80;99.90
24664;DHT22;12791;50.992;13.788;2022-11-30T18:00:21;5.90;99.90
24664;DHT22;12791;50.992;13.788;2022-11-30T18:02:49;5.90;99.90
24664;DHT22;12791;50.992;13.788;2022-11-30T18:05:16;5.80;99.90
24664;DHT22;12791;50.992;13.788;2022-11-30T18:07:43;5.90;99.90
24664;DHT22;12791;50.992;13.788;2022-11-30T18:10:10;5.80;99.90
24664;DHT22;12791;50.992;13.788;2022-11-30T18:12:39;5.90;99.90
24664;DHT22;12791;50.992;13.788;2022-11-30T18:15:07;5.70;99.90
24664;DHT22;12791;50.992;13.788;2022-11-30T18:17:35;5.70;99.90
24664;DHT22;12791;50.992;13.788;2022-11-30T18:20:02;5.60;99.90
24664;DHT22;12791;50.992;13.788;2022-11-30T18:22:28;5.70;99.90
24664;DHT22;12791;50.992;13.788;2022-11-30T18:24:55;5.80;99.90
24664;DHT22;12791;50.992;13.788;2022-11-30T18:27:22;5.70;99.90
24664;DHT22;12791;50.992;13.788;2022-11-30T18:29:52;5.20;99.90
24664;DHT22;12791;50.992;13.788;2022-11-30T18:32:19;5.40;99.90
24664;DHT22;12791;50.992;13.788;2022-11-30T18:34:46;5.70;99.90
24664;DHT22;12791;50.992;13.788;2022-11-30T18:37:14;5.50;99.90
24664;DHT22;12791;50.992;13.788;2022-11-30T18:39:40;5.80;99.90
24664;DHT22;12791;50.992;13.788;2022-11-30T18:42:07;5.40;99.90
24664;DHT22;12791;50.992;13.788;2022-11-30T18:44:34;5.60;99.90
24664;DHT22;12791;50.992;13.788;2022-11-30T18:47:02;5.80;99.90
24664;DHT22;12791;50.992;13.788;2022-11-30T18:49:29;5.50;99.90
24664;DHT22;12791;50.992;13.788;2022-11-30T18:51:55;5.70;99.90
24664;DHT22;12791;50.992;13.788;2022-11-30T18:54:22;5.50;99.90
24664;DHT22;12791;50.992;13.788;2022-11-30T18:56:50;5.70;99.90
24664;DHT22;12791;50.992;13.788;2022-11-30T18:59:17;5.40;99.90
24664;DHT22;12791;50.992;13.788;2022-11-30T19:01:43;5.50;99.90
24664;DHT22;12791;50.992;13.788;2022-11-30T19:04:12;5.50;99.90
24664;DHT22;12791;50.992;13.788;2022-11-30T19:06:40;5.50;99.90
24664;DHT22;12791;50.992;13.788;2022-11-30T19:09:09;5.80;99.90
24664;DHT22;12791;50.992;13.788;2022-11-30T19:11:37;5.50;99.90
24664;DHT22;12791;50.992;13.788;2022-11-30T19:14:04;5.70;99.90
24664;DHT22;12791;50.992;13.788;2022-11-30T19:16:32;5.60;99.90
24664;DHT22;12791;50.992;13.788;2022-11-30T19:19:01;5.50;99.90
24664;DHT22;12791;50.992;13.788;2022-11-30T19:21:29;5.60;99.90
24664;DHT22;12791;50.992;13.788;2022-11-30T19:23:57;5.40;99.90
24664;DHT22;12791;50.992;13.788;2022-11-30T19:26:24;5.30;99.90
24664;DHT22;12791;50.992;13.788;2022-11-30T19:28:52;5.30;99.90
24664;DHT22;12791;50.992;13.788;2022-11-30T19:31:20;5.10;99.90
24664;DHT22;12791;50.992;13.788;2022-11-30T19:33:49;5.40;99.90
24664;DHT22;12791;50.992;13.788;2022-11-30T19:36:19;5.30;99.90
24664;DHT22;12791;50.992;13.788;2022-11-30T19:38:47;4.70;99.90
24664;DHT22;12791;50.992;13.788;2022-11-30T19:41:16;5.20;99.90
24664;DHT22;12791;50.992;13.788;2022-11-30T19:43:43;5.10;99.90
24664;DHT22;12791;50.992;13.788;2022-11-30T19:46:12;5.00;99.90
24664;DHT22;12791;50.992;13.788;2022-11-30T19:48:39;4.90;99.90
24664;DHT22;12791;50.992;13.788;2022-11-30T19:51:08;4.90;99.90
24664;DHT22;12791;50.992;13.788;2022-11-30T19:53:35;4.80;99.90
24664;DHT22;12791;50.992;13.788;2022-11-30T19:56:08;4.90;99.90
24664;DHT22;12791;50.992;13.788;2022-11-30T19:58:35;4.80;99.90